Prestonsburg, Kentucky
Current Conditions -  °F | °C
As of 7:15 PM on Tuesday 25 Nov 2014 (Local Time) from KSJS Reporting Station
Clear Clear  
Wind Chill: 47°   Ceiling: Unl
Heat Index: 47°   Visibility: 10mi
Dew Point: 28°   Wind: 3mph
Humidity: 48%   Direction: 10°N
Pressure: 30.1"   Gusts: NA
Location:  37.67°N, 82.77°W
Report Text: KSJS 260015Z AUTO 01003KT 10SM CLR 08/M02 A3010 RMK AO2 T00821022
Loading
Personal Weather Stations






























Interactive Weather Map New forecast layout! Learn more

10-Day Weather Forecast

Advertisements
Track Severe Weather on mobile